createdAt,value
2022-08-22T00:01:23.949Z,80.38
2022-08-22T00:03:12.735Z,79.90
2022-08-22T00:03:16.334Z,80.76
2022-08-22T00:04:18.940Z,80.76
2022-08-22T00:07:06.381Z,80.26
2022-08-22T00:09:58.012Z,80.89
2022-08-22T00:12:33.486Z,80.73
2022-08-22T00:15:42.301Z,80.63
2022-08-22T00:18:11.941Z,80.68
2022-08-22T00:21:32.732Z,80.89
2022-08-22T00:24:09.538Z,80.66
2022-08-22T00:27:00.965Z,80.53
2022-08-22T00:29:46.494Z,81.12
2022-08-22T00:32:28.062Z,80.57
2022-08-22T00:35:06.019Z,80.60
2022-08-22T00:37:42.229Z,80.63
2022-08-22T00:40:25.189Z,80.72
2022-08-22T00:43:20.214Z,81.01
2022-08-22T00:46:06.191Z,80.74
2022-08-22T00:49:13.182Z,80.39
2022-08-22T00:52:27.456Z,80.53
2022-08-22T00:55:10.086Z,81.14
2022-08-22T00:58:00.173Z,80.86
2022-08-22T01:00:35.255Z,80.93
2022-08-22T01:03:26.273Z,80.84
2022-08-22T01:06:21.069Z,80.87
2022-08-22T01:09:10.726Z,80.89
2022-08-22T01:11:45.543Z,80.98
2022-08-22T01:14:34.412Z,80.73
2022-08-22T01:17:45.028Z,80.30
2022-08-22T01:20:50.361Z,79.58
2022-08-22T01:23:37.530Z,79.18
2022-08-22T01:26:49.373Z,78.84
2022-08-22T01:29:56.392Z,79.45
2022-08-22T01:32:43.442Z,78.83
2022-08-22T01:35:29.717Z,78.57
2022-08-22T01:38:19.506Z,78.82
2022-08-22T01:41:03.587Z,76.69
2022-08-22T01:44:15.086Z,73.39
2022-08-22T01:46:56.413Z,71.25
2022-08-22T01:49:38.239Z,71.64
2022-08-22T01:52:19.536Z,72.29
2022-08-22T01:55:03.774Z,73.73
2022-08-22T01:57:32.604Z,73.70
2022-08-22T02:00:09.474Z,72.09
2022-08-22T02:03:08.523Z,69.18
2022-08-22T02:05:54.186Z,64.19
2022-08-22T02:08:37.745Z,61.03
2022-08-22T02:11:32.730Z,59.67
2022-08-22T02:14:41.346Z,59.02
2022-08-22T02:17:20.246Z,59.14
2022-08-22T02:20:10.539Z,61.01
2022-08-22T02:22:54.522Z,62.02
2022-08-22T02:25:26.748Z,61.01
2022-08-22T02:28:11.673Z,59.35
2022-08-22T02:31:17.057Z,58.10
2022-08-22T02:34:21.433Z,59.26
2022-08-22T02:36:58.224Z,57.87
2022-08-22T02:39:39.469Z,59.04
2022-08-22T02:42:34.743Z,61.02
2022-08-22T02:45:21.991Z,59.86
2022-08-22T02:48:23.695Z,60.63
2022-08-22T02:50:57.591Z,60.77
2022-08-22T02:53:40.027Z,60.66
2022-08-22T02:56:17.654Z,59.13
2022-08-22T02:59:12.896Z,60.35
2022-08-22T03:01:45.190Z,60.00
2022-08-22T03:04:32.043Z,58.19
2022-08-22T03:07:18.921Z,57.15
2022-08-22T03:09:57.306Z,57.95
2022-08-22T03:12:57.432Z,57.65
2022-08-22T03:15:40.622Z,57.73
2022-08-22T03:18:29.676Z,56.76
2022-08-22T03:21:14.623Z,57.15
2022-08-22T03:23:50.102Z,56.42
2022-08-22T03:26:28.605Z,54.66
2022-08-22T03:29:17.585Z,55.17
2022-08-22T03:32:07.264Z,54.37
2022-08-22T03:34:37.111Z,53.71
2022-08-22T03:37:41.325Z,54.06
2022-08-22T03:40:31.814Z,53.13
2022-08-22T03:43:15.310Z,52.99
2022-08-22T03:46:37.223Z,53.64
2022-08-22T03:49:42.693Z,53.01
2022-08-22T03:52:29.847Z,52.51
2022-08-22T03:55:04.203Z,53.01
2022-08-22T03:57:53.727Z,52.71
2022-08-22T04:01:06.203Z,53.99
2022-08-22T04:04:11.994Z,53.86
2022-08-22T04:06:49.245Z,55.11
2022-08-22T04:09:43.570Z,55.52
2022-08-22T04:12:30.200Z,55.94
2022-08-22T04:15:14.998Z,56.03
2022-08-22T04:18:27.693Z,56.80
2022-08-22T04:21:08.141Z,56.87
2022-08-22T04:24:07.188Z,57.65
2022-08-22T04:26:48.757Z,57.33
2022-08-22T04:29:29.410Z,57.49
2022-08-22T04:32:26.015Z,56.88
2022-08-22T04:35:03.909Z,57.96
2022-08-22T04:37:54.603Z,56.46
2022-08-22T04:40:56.455Z,56.56
2022-08-22T04:43:43.321Z,57.02
2022-08-22T04:46:24.791Z,55.82
2022-08-22T04:49:42.354Z,55.08
2022-08-22T04:52:46.083Z,54.84
2022-08-22T04:55:27.731Z,54.86
2022-08-22T04:58:26.363Z,56.08
2022-08-22T05:01:13.815Z,56.61
2022-08-22T05:03:52.015Z,56.06
2022-08-22T05:06:24.323Z,56.12
2022-08-22T05:08:53.689Z,56.81
2022-08-22T05:11:25.293Z,57.33
2022-08-22T05:14:01.485Z,55.44
2022-08-22T05:16:39.994Z,55.96
2022-08-22T05:19:17.458Z,55.12
2022-08-22T05:21:51.317Z,55.11
2022-08-22T05:24:37.145Z,55.06
2022-08-22T05:27:12.894Z,55.77
2022-08-22T05:29:46.325Z,57.07
2022-08-22T05:32:26.993Z,55.75
2022-08-22T05:35:01.369Z,54.02
2022-08-22T05:37:48.171Z,54.75
2022-08-22T05:40:24.110Z,55.16
2022-08-22T05:42:54.615Z,54.93
2022-08-22T05:45:24.633Z,53.40
2022-08-22T05:48:04.093Z,54.42
2022-08-22T05:50:41.593Z,54.37
2022-08-22T05:53:39.606Z,55.11
2022-08-22T05:56:32.436Z,53.81
2022-08-22T05:59:21.078Z,53.17
2022-08-22T06:01:52.760Z,53.88
2022-08-22T06:04:32.165Z,53.04
2022-08-22T06:07:10.145Z,55.34
2022-08-22T06:09:50.006Z,54.81
2022-08-22T06:12:43.796Z,55.21
2022-08-22T06:15:35.571Z,54.60
2022-08-22T06:18:12.679Z,55.45
2022-08-22T06:20:48.683Z,53.91
2022-08-22T06:23:27.423Z,53.40
2022-08-22T06:26:00.520Z,53.51
2022-08-22T06:28:39.135Z,53.07
2022-08-22T06:31:37.596Z,53.44
2022-08-22T06:34:06.125Z,54.58
2022-08-22T06:36:38.165Z,54.62
2022-08-22T06:39:28.047Z,53.73
2022-08-22T06:42:16.721Z,54.73
2022-08-22T06:44:55.136Z,53.13
2022-08-22T06:47:29.486Z,52.01
2022-08-22T06:50:07.287Z,53.18
2022-08-22T06:53:14.840Z,51.87
2022-08-22T06:55:49.585Z,51.85
2022-08-22T06:58:22.756Z,50.59
2022-08-22T07:01:05.760Z,50.97
2022-08-22T07:03:48.325Z,49.94
2022-08-22T07:06:20.158Z,49.38
2022-08-22T07:08:54.563Z,50.27
2022-08-22T07:11:32.517Z,47.74
2022-08-22T07:14:07.066Z,48.41
2022-08-22T07:16:43.286Z,48.63
2022-08-22T07:19:27.795Z,47.79
2022-08-22T07:21:57.234Z,46.98
2022-08-22T07:24:32.923Z,47.24
2022-08-22T07:27:09.589Z,48.68
2022-08-22T07:30:10.265Z,47.06
2022-08-22T07:33:25.855Z,47.60
2022-08-22T07:35:59.870Z,48.73
2022-08-22T07:38:45.779Z,49.26
2022-08-22T07:41:25.830Z,49.03
2022-08-22T07:44:16.120Z,47.77
2022-08-22T07:46:53.517Z,47.34
2022-08-22T07:49:26.894Z,47.42
2022-08-22T07:52:00.035Z,49.09
2022-08-22T07:54:47.747Z,47.30
2022-08-22T07:57:25.660Z,46.78
2022-08-22T08:00:02.129Z,48.17
2022-08-22T08:02:48.026Z,46.96
2022-08-22T08:05:18.252Z,47.79
2022-08-22T08:07:48.650Z,46.32
2022-08-22T08:10:24.544Z,45.91
2022-08-22T08:13:02.391Z,46.37
2022-08-22T08:15:36.534Z,45.08
2022-08-22T08:18:15.140Z,44.97
2022-08-22T08:20:43.883Z,45.25
2022-08-22T08:23:23.641Z,44.97
2022-08-22T08:26:08.401Z,45.06
2022-08-22T08:28:46.975Z,46.10
2022-08-22T08:31:25.736Z,47.31
2022-08-22T08:34:10.282Z,47.00
2022-08-22T08:36:49.432Z,47.60
2022-08-22T08:39:38.442Z,45.42
2022-08-22T08:42:28.222Z,44.70
2022-08-22T08:45:16.267Z,44.92
2022-08-22T08:48:06.170Z,45.18
2022-08-22T08:50:57.500Z,47.20
2022-08-22T08:54:02.292Z,45.58
2022-08-22T08:57:00.442Z,44.36
2022-08-22T09:00:00.654Z,45.68
2022-08-22T09:02:47.706Z,47.10
2022-08-22T09:05:44.006Z,47.55
2022-08-22T09:08:36.681Z,47.81
2022-08-22T09:11:28.343Z,46.45
2022-08-22T09:14:24.144Z,46.31
2022-08-22T09:17:22.860Z,46.01
2022-08-22T09:20:17.593Z,45.76
2022-08-22T09:23:04.603Z,44.91
2022-08-22T09:25:46.149Z,45.27
2022-08-22T09:28:30.765Z,45.47
2022-08-22T09:31:16.988Z,45.84
2022-08-22T09:34:13.049Z,45.31
2022-08-22T09:37:03.630Z,45.79
2022-08-22T09:39:51.288Z,45.25
2022-08-22T09:42:38.427Z,45.39
2022-08-22T09:45:34.381Z,45.11
2022-08-22T09:48:08.529Z,45.61
2022-08-22T09:50:54.555Z,47.05
2022-08-22T09:53:58.857Z,45.66
2022-08-22T09:56:53.737Z,45.35
2022-08-22T09:59:33.717Z,44.88
2022-08-22T10:02:15.493Z,44.33
2022-08-22T10:04:53.070Z,44.48
2022-08-22T10:07:52.952Z,44.79
2022-08-22T10:10:27.035Z,44.92
2022-08-22T10:13:11.205Z,45.17
2022-08-22T10:15:58.143Z,45.84
2022-08-22T10:19:12.330Z,45.82
2022-08-22T10:21:49.599Z,46.12
2022-08-22T10:24:31.697Z,46.25
2022-08-22T10:27:14.846Z,46.45
2022-08-22T10:29:55.073Z,46.04
2022-08-22T10:32:59.876Z,45.28
2022-08-22T10:35:56.110Z,45.99
2022-08-22T10:38:46.202Z,46.92
2022-08-22T10:41:40.360Z,45.55
2022-08-22T10:44:24.590Z,46.74
2022-08-22T10:46:59.423Z,46.70
2022-08-22T10:50:00.011Z,46.85
2022-08-22T10:52:33.429Z,45.43
2022-08-22T10:55:13.182Z,45.16
2022-08-22T10:57:52.136Z,44.82
2022-08-22T11:00:49.956Z,45.38
2022-08-22T11:03:39.885Z,46.28
2022-08-22T11:06:34.753Z,45.82
2022-08-22T11:09:14.245Z,46.03
2022-08-22T11:12:13.443Z,45.48
2022-08-22T11:14:50.824Z,46.11
2022-08-22T11:17:40.616Z,46.37
2022-08-22T11:20:27.798Z,45.64
2022-08-22T11:23:28.844Z,45.46
2022-08-22T11:26:47.315Z,46.57
2022-08-22T11:29:52.474Z,46.58
2022-08-22T11:32:36.247Z,46.93
2022-08-22T11:35:23.543Z,45.77
2022-08-22T11:38:32.583Z,46.38
2022-08-22T11:41:27.546Z,46.67
2022-08-22T11:44:03.398Z,46.97
2022-08-22T11:46:36.747Z,46.43
2022-08-22T11:49:31.584Z,46.35
2022-08-22T11:52:09.868Z,46.82
2022-08-22T11:55:12.666Z,46.34
2022-08-22T11:57:46.373Z,46.92
2022-08-22T12:00:34.878Z,45.92
2022-08-22T12:03:24.593Z,46.58
2022-08-22T12:06:15.391Z,46.76
2022-08-22T12:08:53.153Z,47.49
2022-08-22T12:11:59.665Z,47.02
2022-08-22T12:14:46.114Z,47.56
2022-08-22T12:17:55.916Z,47.81
2022-08-22T12:20:48.503Z,47.94
2022-08-22T12:24:01.110Z,48.73
2022-08-22T12:26:51.272Z,48.28
2022-08-22T12:29:44.628Z,48.84
2022-08-22T12:32:38.018Z,47.76
2022-08-22T12:35:40.911Z,49.38
2022-08-22T12:38:32.812Z,49.13
2022-08-22T12:41:37.639Z,48.24
2022-08-22T12:44:30.898Z,48.51
2022-08-22T12:47:15.224Z,48.28
2022-08-22T12:50:14.305Z,48.43
2022-08-22T12:53:00.603Z,49.16
2022-08-22T12:55:46.035Z,49.28
2022-08-22T12:58:51.322Z,50.10
2022-08-22T13:01:23.364Z,50.51
2022-08-22T13:04:08.876Z,50.81
2022-08-22T13:06:37.035Z,51.05
2022-08-22T13:09:20.669Z,51.22
2022-08-22T13:12:03.430Z,51.49
2022-08-22T13:14:34.793Z,51.60
2022-08-22T13:17:24.450Z,52.12
2022-08-22T13:20:08.655Z,52.22
2022-08-22T13:22:45.033Z,52.74
2022-08-22T13:25:26.170Z,52.90
2022-08-22T13:28:04.414Z,55.52
2022-08-22T13:30:39.961Z,57.53
2022-08-22T13:33:14.954Z,58.09
2022-08-22T13:35:55.342Z,57.55
2022-08-22T13:38:28.826Z,59.53
2022-08-22T13:40:59.374Z,59.83
2022-08-22T13:43:53.137Z,59.76
2022-08-22T13:46:31.079Z,60.30
2022-08-22T13:49:09.104Z,61.03
2022-08-22T13:51:54.474Z,61.71
2022-08-22T13:54:45.304Z,61.37
2022-08-22T13:57:31.213Z,62.36
2022-08-22T14:00:28.669Z,62.73
2022-08-22T14:03:05.656Z,63.11
2022-08-22T14:05:55.409Z,63.70
2022-08-22T14:08:32.781Z,63.84
2022-08-22T14:11:08.312Z,64.34
2022-08-22T14:14:02.007Z,64.05
2022-08-22T14:16:38.812Z,64.55
2022-08-22T14:19:11.380Z,64.97
2022-08-22T14:21:52.078Z,65.09
2022-08-22T14:24:29.790Z,65.82
2022-08-22T14:27:06.962Z,65.61
2022-08-22T14:30:06.848Z,65.45
2022-08-22T14:33:05.185Z,65.59
2022-08-22T14:35:43.269Z,65.58
2022-08-22T14:38:27.362Z,65.61
2022-08-22T14:41:52.332Z,65.59
2022-08-22T14:44:39.508Z,66.07
2022-08-22T14:47:54.659Z,66.26
2022-08-22T14:50:13.039Z,67.74
2022-08-22T14:52:45.315Z,68.11
2022-08-22T14:55:27.174Z,67.83
2022-08-22T14:58:07.694Z,67.83
2022-08-22T15:00:57.810Z,67.96
2022-08-22T15:03:33.883Z,68.00
2022-08-22T15:06:04.237Z,67.92
2022-08-22T15:08:49.534Z,68.24
2022-08-22T15:11:23.918Z,68.99
2022-08-22T15:14:14.424Z,69.09
2022-08-22T15:17:02.486Z,69.74
2022-08-22T15:19:36.525Z,70.22
2022-08-22T15:22:14.243Z,69.64
2022-08-22T15:24:56.341Z,69.27
2022-08-22T15:27:27.739Z,70.38
2022-08-22T15:30:06.774Z,70.03
2022-08-22T15:32:49.660Z,69.92
2022-08-22T15:35:32.155Z,69.87
2022-08-22T15:38:11.249Z,71.28
2022-08-22T15:40:46.766Z,71.36
2022-08-22T15:43:24.991Z,71.82
2022-08-22T15:46:17.913Z,71.35
2022-08-22T15:49:01.507Z,71.44
2022-08-22T15:52:06.162Z,70.86
2022-08-22T15:54:51.237Z,70.55
2022-08-22T15:57:28.477Z,71.73
2022-08-22T16:00:27.858Z,71.59
2022-08-22T16:03:02.632Z,72.50
2022-08-22T16:05:42.993Z,72.32
2022-08-22T16:08:18.124Z,71.56
2022-08-22T16:11:14.905Z,71.81
2022-08-22T16:13:45.478Z,71.23
2022-08-22T16:16:26.291Z,71.51
2022-08-22T16:18:54.947Z,72.09
2022-08-22T16:21:26.630Z,72.16
2022-08-22T16:23:57.194Z,72.14
2022-08-22T16:26:39.349Z,72.03
2022-08-22T16:29:41.301Z,71.42
2022-08-22T16:32:15.708Z,72.09
2022-08-22T16:34:46.517Z,71.80
2022-08-22T16:37:22.976Z,72.26
2022-08-22T16:40:07.694Z,72.47
2022-08-22T16:42:47.794Z,72.91
2022-08-22T16:45:25.675Z,72.93
2022-08-22T16:47:58.889Z,72.75
2022-08-22T16:51:10.625Z,73.05
2022-08-22T16:53:45.765Z,73.79
2022-08-22T16:56:36.072Z,73.37
2022-08-22T16:59:23.734Z,73.76
2022-08-22T17:02:16.153Z,73.56
2022-08-22T17:05:20.703Z,73.91
2022-08-22T17:08:04.183Z,74.31
2022-08-22T17:10:36.016Z,74.00
2022-08-22T17:13:26.472Z,74.14
2022-08-22T17:16:33.858Z,74.09
2022-08-22T17:19:32.965Z,74.01
2022-08-22T17:22:29.080Z,74.30
2022-08-22T17:25:45.311Z,74.10
2022-08-22T17:28:21.943Z,74.60
2022-08-22T17:31:02.604Z,75.14
2022-08-22T17:33:59.894Z,75.30
2022-08-22T17:36:51.724Z,75.47
2022-08-22T17:39:56.019Z,75.47
2022-08-22T17:42:36.118Z,75.51
2022-08-22T17:45:16.670Z,75.34
2022-08-22T17:47:53.230Z,76.04
2022-08-22T17:50:35.233Z,75.72
2022-08-22T17:53:16.098Z,74.67
2022-08-22T17:56:06.883Z,75.52
2022-08-22T17:59:08.224Z,75.87
2022-08-22T18:01:45.162Z,76.39
2022-08-22T18:04:23.712Z,76.15
2022-08-22T18:07:06.213Z,76.05
2022-08-22T18:10:00.282Z,76.28
2022-08-22T18:12:46.783Z,75.85
2022-08-22T18:15:40.531Z,76.45
2022-08-22T18:18:30.366Z,76.84
2022-08-22T18:21:30.391Z,77.10
2022-08-22T18:24:06.411Z,76.79
2022-08-22T18:26:47.322Z,77.05
2022-08-22T18:29:21.211Z,77.82
2022-08-22T18:32:03.439Z,77.59
2022-08-22T18:34:53.804Z,77.87
2022-08-22T18:37:35.324Z,78.42
2022-08-22T18:40:29.776Z,78.17
2022-08-22T18:43:19.092Z,78.64
2022-08-22T18:45:47.536Z,78.91
2022-08-22T18:49:05.449Z,78.57
2022-08-22T18:51:38.211Z,78.79
2022-08-22T18:54:11.694Z,78.33
2022-08-22T18:56:51.763Z,78.58
2022-08-22T18:59:47.666Z,78.52
2022-08-22T19:02:34.735Z,78.43
2022-08-22T19:05:34.146Z,77.86
2022-08-22T19:08:19.918Z,77.06
2022-08-22T19:11:14.696Z,76.83
2022-08-22T19:14:09.552Z,77.33
2022-08-22T19:17:05.349Z,78.48
2022-08-22T19:20:27.872Z,78.83
2022-08-22T19:23:34.857Z,79.97
2022-08-22T19:26:24.950Z,80.08
2022-08-22T19:29:18.017Z,80.39
2022-08-22T19:32:02.608Z,79.80
2022-08-22T19:34:39.531Z,78.69
2022-08-22T19:37:32.210Z,79.22
2022-08-22T19:40:10.110Z,78.99
2022-08-22T19:42:44.804Z,79.49
2022-08-22T19:45:29.529Z,80.11
2022-08-22T19:48:14.286Z,79.49
2022-08-22T19:50:44.589Z,80.80
2022-08-22T19:53:34.376Z,80.82
2022-08-22T19:56:33.653Z,80.62
2022-08-22T19:59:21.247Z,80.37
2022-08-22T20:02:12.925Z,80.63
2022-08-22T20:04:53.364Z,80.35
2022-08-22T20:07:43.195Z,79.30
2022-08-22T20:10:17.896Z,78.93
2022-08-22T20:13:20.039Z,78.84
2022-08-22T20:16:14.171Z,79.20
2022-08-22T20:19:08.529Z,78.39
2022-08-22T20:21:47.356Z,79.17
2022-08-22T20:24:47.386Z,79.22
2022-08-22T20:27:32.527Z,79.58
2022-08-22T20:30:12.666Z,79.30
2022-08-22T20:32:51.276Z,79.30
2022-08-22T20:35:23.725Z,79.20
2022-08-22T20:38:06.979Z,79.14
2022-08-22T20:41:11.070Z,80.09
2022-08-22T20:43:53.789Z,80.92
2022-08-22T20:46:47.431Z,79.24
2022-08-22T20:49:29.490Z,79.95
2022-08-22T20:52:01.190Z,79.36
2022-08-22T20:54:35.053Z,79.26
2022-08-22T20:57:15.165Z,78.97
2022-08-22T20:59:53.151Z,78.78
2022-08-22T21:02:42.307Z,78.17
2022-08-22T21:05:13.992Z,79.48
2022-08-22T21:07:46.032Z,80.59
2022-08-22T21:10:45.893Z,80.88
2022-08-22T21:13:20.592Z,80.96
2022-08-22T21:16:32.545Z,79.53
2022-08-22T21:19:05.220Z,79.78
2022-08-22T21:21:35.629Z,79.18
2022-08-22T21:24:10.159Z,79.72
2022-08-22T21:26:50.341Z,79.82
2022-08-22T21:29:18.753Z,79.67
2022-08-22T21:31:50.209Z,80.21
2022-08-22T21:34:27.884Z,81.53
2022-08-22T21:37:03.120Z,80.99
2022-08-22T21:39:45.482Z,80.86
2022-08-22T21:42:25.102Z,81.25
2022-08-22T21:44:59.388Z,82.01
2022-08-22T21:47:33.275Z,81.08
2022-08-22T21:50:13.820Z,80.68
2022-08-22T21:53:04.373Z,80.77
2022-08-22T21:55:34.564Z,81.92
2022-08-22T21:58:13.656Z,81.86
2022-08-22T22:01:32.547Z,81.87
2022-08-22T22:04:01.677Z,82.42
2022-08-22T22:06:30.282Z,83.43
2022-08-22T22:08:59.236Z,82.86
2022-08-22T22:11:28.040Z,82.58
2022-08-22T22:13:56.807Z,82.85
2022-08-22T22:16:28.331Z,83.08
2022-08-22T22:18:57.721Z,83.23
2022-08-22T22:21:26.525Z,83.48
2022-08-22T22:23:56.446Z,82.74
2022-08-22T22:26:27.525Z,82.12
2022-08-22T22:28:59.241Z,82.12
2022-08-22T22:31:27.954Z,81.39
2022-08-22T22:33:56.722Z,81.88
2022-08-22T22:36:27.455Z,82.38
2022-08-22T22:38:56.418Z,82.21
2022-08-22T22:41:26.312Z,81.65
2022-08-22T22:43:56.295Z,81.95
2022-08-22T22:46:27.894Z,82.09
2022-08-22T22:48:58.177Z,83.07
2022-08-22T22:51:26.927Z,83.14
2022-08-22T22:53:57.484Z,82.99
2022-08-22T22:56:26.961Z,83.73
2022-08-22T22:59:00.884Z,84.43
2022-08-22T23:02:10.839Z,84.39
2022-08-22T23:04:41.929Z,84.07
2022-08-22T23:07:12.637Z,83.70
2022-08-22T23:09:45.166Z,83.82
2022-08-22T23:12:15.387Z,83.74
2022-08-22T23:14:44.500Z,84.00
2022-08-22T23:17:13.346Z,84.04
2022-08-22T23:19:42.971Z,83.65
2022-08-22T23:22:14.743Z,84.08
2022-08-22T23:24:43.584Z,84.15
2022-08-22T23:27:12.919Z,83.91
2022-08-22T23:29:42.872Z,83.93
2022-08-22T23:32:12.666Z,84.28
2022-08-22T23:34:46.544Z,84.07
2022-08-22T23:37:17.705Z,84.59
2022-08-22T23:39:46.595Z,84.14
2022-08-22T23:42:16.202Z,83.75
2022-08-22T23:44:46.135Z,83.99
2022-08-22T23:47:16.072Z,84.00
2022-08-22T23:49:45.404Z,84.22
2022-08-22T23:52:14.187Z,84.74
2022-08-22T23:54:43.141Z,84.55
2022-08-22T23:57:12.731Z,85.04
2022-08-22T23:59:48.020Z,84.75
